EGPE/INV METAR and TAF weather

Enter ICAO airport designator
Station Type Date Time Source
EGPE METAR 2019/02/23 16:50 UTC NOAA

EGPE 231650Z 21018KT 9999 FEW025 12/08 Q1023


Station Type Date Time Source
EGPE Decoded METAR 2019/02/23 16:50 UTC NOAA

Inverness / Dalcross, United Kingdom (EGPE) 57-32N 004-03W 0M
Feb 23, 2019 - 11:50 AM EST / 2019.02.23 1650 UTC
Wind: from the SSW (210 degrees) at 21 MPH (18 KT):0
Visibility: greater than 7 mile(s):0
Sky conditions: mostly clear
Temperature: 53 F (12 C)
Dew Point: 46 F (8 C)
Relative Humidity: 76%
Pressure (altimeter): 30.21 in. Hg (1023 hPa)
ob: EGPE 231650Z 21018KT 9999 FEW025 12/08 Q1023
cycle: 17

Station Type Date Time Source
EGPE TAF UTC NOAA

Error!


Example: see airport list